UAE382 OMDB-VHHH
Flight info
| Callsign | UAE382 |
|---|---|
| Flight time | N/A |
| Altitude | 37000 |
| Route | IVURO M677 LALDO B505 NADSO B524 ALPOR M504 TELEM A791 JJS/N0494F390 A791 CEA B465 CTG A599 LINSO/K0907S1190 A599 POU R473 SIERA |
| Aircraft | A388/J-SADE2E3FGHIJ3J4J5M1RWXY/LB1D1 |
Departure
| Time | 2026-05-05 23:17 |
|---|---|
| Airport | Dubai International Airport (OMDB) |
Arrival
| Time | N/A |
|---|---|
| Airport | Hong Kong International Airport (VHHH) |
| Time | Latitude | Longitude | Altitude | Speed | Heading |
|---|---|---|---|---|---|
| 2026-05-05 22:42 | 25.24394 | 55.37297 | 32 ft | 0 kts | 211° |
| 2026-05-05 22:59 | 25.24399 | 55.37301 | 26 ft | 1 kts | 211° |
| 2026-05-05 22:59 | 25.24405 | 55.37305 | 32 ft | 1 kts | 211° |
| 2026-05-05 23:00 | 25.24418 | 55.37313 | 26 ft | 1 kts | 211° |
| 2026-05-05 23:00 | 25.24425 | 55.37317 | 32 ft | 1 kts | 203° |
| 2026-05-05 23:00 | 25.24434 | 55.37320 | 28 ft | 2 kts | 193° |
| 2026-05-05 23:01 | 25.24449 | 55.37321 | 32 ft | 2 kts | 178° |
| 2026-05-05 23:01 | 25.24463 | 55.37318 | 32 ft | 2 kts | 163° |
| 2026-05-05 23:01 | 25.24475 | 55.37311 | 32 ft | 2 kts | 152° |
| 2026-05-05 23:01 | 25.24488 | 55.37303 | 30 ft | 2 kts | 148° |
| 2026-05-05 23:02 | 25.24498 | 55.37292 | 32 ft | 2 kts | 123° |
| 2026-05-05 23:02 | 25.24498 | 55.37290 | 32 ft | 0 kts | 120° |
| 2026-05-05 23:04 | 25.24492 | 55.37302 | 32 ft | 4 kts | 120° |
| 2026-05-05 23:04 | 25.24489 | 55.37308 | 32 ft | 0 kts | 120° |
| 2026-05-05 23:05 | 25.24480 | 55.37326 | 30 ft | 5 kts | 118° |
| 2026-05-05 23:06 | 25.24450 | 55.37389 | 31 ft | 8 kts | 116° |
| 2026-05-05 23:06 | 25.24440 | 55.37412 | 29 ft | 0 kts | 116° |
| 2026-05-05 23:08 | 25.24440 | 55.37413 | 29 ft | 0 kts | 116° |
| 2026-05-05 23:08 | 25.24439 | 55.37416 | 26 ft | 5 kts | 117° |
| 2026-05-05 23:09 | 25.24393 | 55.37499 | 29 ft | 15 kts | 121° |
| 2026-05-05 23:09 | 25.24336 | 55.37596 | 30 ft | 15 kts | 124° |
| 2026-05-05 23:09 | 25.24277 | 55.37692 | 31 ft | 11 kts | 123° |
| 2026-05-05 23:09 | 25.24257 | 55.37731 | 29 ft | 4 kts | 100° |
| 2026-05-05 23:10 | 25.24271 | 55.37773 | 26 ft | 9 kts | 45° |
| 2026-05-05 23:10 | 25.24324 | 55.37816 | 27 ft | 10 kts | 34° |
| 2026-05-05 23:10 | 25.24331 | 55.37821 | 27 ft | 0 kts | 34° |
| 2026-05-05 23:11 | 25.24332 | 55.37822 | 27 ft | 0 kts | 34° |
| 2026-05-05 23:11 | 25.24362 | 55.37844 | 27 ft | 6 kts | 34° |
| 2026-05-05 23:11 | 25.24388 | 55.37864 | 27 ft | 7 kts | 34° |
| 2026-05-05 23:12 | 25.24443 | 55.37905 | 29 ft | 10 kts | 34° |
| 2026-05-05 23:12 | 25.24507 | 55.37953 | 30 ft | 12 kts | 34° |
| 2026-05-05 23:12 | 25.24585 | 55.38010 | 28 ft | 15 kts | 33° |
| 2026-05-05 23:12 | 25.24649 | 55.38057 | 29 ft | 11 kts | 33° |
| 2026-05-05 23:13 | 25.24715 | 55.38106 | 31 ft | 12 kts | 31° |
| 2026-05-05 23:13 | 25.24767 | 55.38095 | 31 ft | 8 kts | 312° |
| 2026-05-05 23:13 | 25.24782 | 55.38069 | 30 ft | 0 kts | 300° |
| 2026-05-05 23:16 | 25.24788 | 55.38057 | 30 ft | 11 kts | 300° |
| 2026-05-05 23:16 | 25.24956 | 55.37750 | 30 ft | 84 kts | 301° |
| 2026-05-05 23:16 | 25.25370 | 55.37003 | 30 ft | 138 kts | 301° |
| 2026-05-05 23:17 | 25.25955 | 55.35985 | 34 ft | 173 kts | 303° |
| 2026-05-05 23:17 | 25.26575 | 55.34851 | 482 ft | 169 kts | 301° |
| 2026-05-05 23:17 | 25.27198 | 55.33689 | 724 ft | 181 kts | 300° |
| 2026-05-05 23:17 | 25.27875 | 55.32505 | 1089 ft | 183 kts | 304° |
| 2026-05-05 23:18 | 25.28612 | 55.31340 | 1439 ft | 189 kts | 303° |
| 2026-05-05 23:18 | 25.29343 | 55.30107 | 1689 ft | 196 kts | 314° |
| 2026-05-05 23:18 | 25.30510 | 55.29358 | 1943 ft | 196 kts | 352° |
| 2026-05-05 23:18 | 25.31868 | 55.29326 | 2323 ft | 197 kts | 5° |
| 2026-05-05 23:19 | 25.33174 | 55.29434 | 3079 ft | 187 kts | 6° |
| 2026-05-05 23:19 | 25.34467 | 55.29533 | 3719 ft | 188 kts | 5° |
| 2026-05-05 23:19 | 25.35844 | 55.29610 | 3982 ft | 211 kts | 4° |
| 2026-05-05 23:19 | 25.37442 | 55.29670 | 3995 ft | 241 kts | 2° |
| 2026-05-05 23:20 | 25.39105 | 55.29801 | 3968 ft | 238 kts | 16° |
| 2026-05-05 23:20 | 25.40522 | 55.30675 | 4062 ft | 235 kts | 46° |
| 2026-05-05 23:20 | 25.41520 | 55.32071 | 4439 ft | 234 kts | 52° |
| 2026-05-05 23:20 | 25.42531 | 55.33476 | 5097 ft | 233 kts | 50° |
| 2026-05-05 23:21 | 25.43540 | 55.34844 | 5723 ft | 235 kts | 50° |
| 2026-05-05 23:21 | 25.44580 | 55.36248 | 6331 ft | 237 kts | 50° |
| 2026-05-05 23:21 | 25.45628 | 55.37668 | 6910 ft | 240 kts | 50° |
| 2026-05-05 23:21 | 25.46688 | 55.39111 | 7508 ft | 243 kts | 50° |
| 2026-05-05 23:22 | 25.47758 | 55.40571 | 8066 ft | 246 kts | 51° |
| 2026-05-05 23:22 | 25.48835 | 55.42045 | 8681 ft | 249 kts | 51° |
| 2026-05-05 23:22 | 25.49905 | 55.43561 | 9297 ft | 251 kts | 52° |
| 2026-05-05 23:22 | 25.50973 | 55.45107 | 9871 ft | 254 kts | 53° |
| 2026-05-05 23:23 | 25.52053 | 55.46672 | 10442 ft | 257 kts | 53° |
| 2026-05-05 23:23 | 25.53023 | 55.48339 | 10973 ft | 260 kts | 70° |
| 2026-05-05 23:23 | 25.53263 | 55.50310 | 11538 ft | 262 kts | 98° |
| 2026-05-05 23:23 | 25.52651 | 55.52198 | 12079 ft | 264 kts | 121° |
| 2026-05-05 23:24 | 25.51629 | 55.53900 | 12645 ft | 267 kts | 125° |
| 2026-05-05 23:24 | 25.50568 | 55.55596 | 13242 ft | 269 kts | 124° |
| 2026-05-05 23:24 | 25.49517 | 55.57324 | 13790 ft | 272 kts | 124° |
| 2026-05-05 23:24 | 25.48476 | 55.59094 | 14306 ft | 275 kts | 123° |
| 2026-05-05 23:25 | 25.47441 | 55.60892 | 14798 ft | 279 kts | 122° |
| 2026-05-05 23:25 | 25.46408 | 55.62701 | 15295 ft | 282 kts | 122° |
| 2026-05-05 23:25 | 25.45367 | 55.64531 | 15786 ft | 285 kts | 122° |
| 2026-05-05 23:25 | 25.44303 | 55.66399 | 16288 ft | 288 kts | 122° |
| 2026-05-05 23:26 | 25.43243 | 55.68295 | 16747 ft | 291 kts | 118° |
| 2026-05-05 23:26 | 25.42424 | 55.70356 | 17231 ft | 294 kts | 107° |
| 2026-05-05 23:26 | 25.41927 | 55.72559 | 17704 ft | 297 kts | 101° |
| 2026-05-05 23:26 | 25.41478 | 55.74801 | 18150 ft | 300 kts | 102° |
| 2026-05-05 23:27 | 25.41012 | 55.77021 | 18551 ft | 303 kts | 102° |
| 2026-05-05 23:27 | 25.40525 | 55.79300 | 18968 ft | 306 kts | 103° |
| 2026-05-05 23:27 | 25.40032 | 55.81599 | 19351 ft | 309 kts | 103° |
| 2026-05-05 23:27 | 25.39542 | 55.83885 | 19739 ft | 311 kts | 103° |
| 2026-05-05 23:28 | 25.39042 | 55.86219 | 20109 ft | 314 kts | 103° |
| 2026-05-05 23:28 | 25.38539 | 55.88571 | 20524 ft | 314 kts | 103° |
| 2026-05-05 23:28 | 25.38035 | 55.90930 | 20910 ft | 317 kts | 103° |
| 2026-05-05 23:28 | 25.37523 | 55.93322 | 21258 ft | 320 kts | 103° |
| 2026-05-05 23:29 | 25.37009 | 55.95727 | 21620 ft | 323 kts | 103° |
| 2026-05-05 23:29 | 25.36503 | 55.98087 | 21965 ft | 325 kts | 103° |
| 2026-05-05 23:29 | 25.35980 | 56.00528 | 22315 ft | 328 kts | 103° |
| 2026-05-05 23:29 | 25.35453 | 56.02986 | 22664 ft | 330 kts | 103° |
| 2026-05-05 23:30 | 25.34921 | 56.05466 | 22993 ft | 333 kts | 103° |
| 2026-05-05 23:30 | 25.34384 | 56.07961 | 23331 ft | 335 kts | 103° |
| 2026-05-05 23:30 | 25.33862 | 56.10390 | 23601 ft | 338 kts | 103° |
| 2026-05-05 23:30 | 25.33318 | 56.12918 | 23874 ft | 340 kts | 103° |
| 2026-05-05 23:31 | 25.32796 | 56.15477 | 24151 ft | 342 kts | 99° |
| 2026-05-05 23:31 | 25.32540 | 56.18094 | 24413 ft | 344 kts | 94° |
| 2026-05-05 23:31 | 25.32341 | 56.20743 | 24694 ft | 347 kts | 95° |
| 2026-05-05 23:31 | 25.32124 | 56.23412 | 24976 ft | 350 kts | 95° |
| 2026-05-05 23:32 | 25.31900 | 56.26098 | 25230 ft | 353 kts | 95° |
| 2026-05-05 23:32 | 25.31672 | 56.28804 | 25541 ft | 355 kts | 95° |
| 2026-05-05 23:32 | 25.31443 | 56.31536 | 25811 ft | 358 kts | 95° |
| 2026-05-05 23:32 | 25.31213 | 56.34288 | 26094 ft | 361 kts | 95° |
| 2026-05-05 23:33 | 25.30983 | 56.37029 | 26347 ft | 365 kts | 95° |
| 2026-05-05 23:33 | 25.30759 | 56.39836 | 26640 ft | 367 kts | 92° |
| 2026-05-05 23:33 | 25.30678 | 56.42666 | 26923 ft | 370 kts | 91° |
| 2026-05-05 23:33 | 25.30603 | 56.45514 | 27200 ft | 373 kts | 91° |
| 2026-05-05 23:34 | 25.30520 | 56.48389 | 27487 ft | 376 kts | 91° |
| 2026-05-05 23:34 | 25.30434 | 56.51293 | 27778 ft | 379 kts | 91° |
| 2026-05-05 23:34 | 25.30347 | 56.54180 | 28068 ft | 382 kts | 91° |
| 2026-05-05 23:34 | 25.30248 | 56.57115 | 28426 ft | 383 kts | 94° |
| 2026-05-05 23:35 | 25.29866 | 56.60079 | 28687 ft | 387 kts | 104° |
| 2026-05-05 23:35 | 25.29101 | 56.62889 | 28979 ft | 389 kts | 113° |
| 2026-05-05 23:35 | 25.28038 | 56.65643 | 29284 ft | 391 kts | 115° |
| 2026-05-05 23:35 | 25.26967 | 56.68424 | 29604 ft | 395 kts | 114° |
| 2026-05-05 23:36 | 25.25904 | 56.71233 | 29924 ft | 398 kts | 114° |
| 2026-05-05 23:36 | 25.24836 | 56.74064 | 30219 ft | 400 kts | 115° |
| 2026-05-05 23:36 | 25.23764 | 56.76905 | 30522 ft | 403 kts | 115° |
| 2026-05-05 23:36 | 25.22680 | 56.79766 | 30806 ft | 405 kts | 115° |
| 2026-05-05 23:37 | 25.21598 | 56.82618 | 31095 ft | 408 kts | 115° |
| 2026-05-05 23:37 | 25.20498 | 56.85513 | 31367 ft | 411 kts | 115° |
| 2026-05-05 23:37 | 25.19433 | 56.88312 | 31609 ft | 414 kts | 115° |
| 2026-05-05 23:37 | 25.18316 | 56.91250 | 31910 ft | 416 kts | 115° |
| 2026-05-05 23:38 | 25.17208 | 56.94159 | 32182 ft | 419 kts | 116° |
| 2026-05-05 23:38 | 25.16072 | 56.97139 | 32461 ft | 421 kts | 116° |
| 2026-05-05 23:38 | 25.14932 | 57.00130 | 32764 ft | 423 kts | 116° |
| 2026-05-05 23:38 | 25.13804 | 57.03087 | 33071 ft | 424 kts | 116° |
| 2026-05-05 23:39 | 25.12652 | 57.06103 | 33308 ft | 428 kts | 116° |
| 2026-05-05 23:39 | 25.11495 | 57.09132 | 33573 ft | 430 kts | 116° |
| 2026-05-05 23:39 | 25.10327 | 57.12186 | 33841 ft | 433 kts | 116° |
| 2026-05-05 23:39 | 25.09151 | 57.15257 | 34030 ft | 436 kts | 116° |
| 2026-05-05 23:40 | 25.07969 | 57.18343 | 34274 ft | 438 kts | 116° |
| 2026-05-05 23:40 | 25.06781 | 57.21445 | 34507 ft | 440 kts | 116° |
| 2026-05-05 23:40 | 25.05587 | 57.24559 | 34733 ft | 442 kts | 116° |
| 2026-05-05 23:40 | 25.04384 | 57.27694 | 34958 ft | 445 kts | 116° |
| 2026-05-05 23:41 | 25.03175 | 57.30840 | 35177 ft | 447 kts | 116° |
| 2026-05-05 23:41 | 25.01960 | 57.34001 | 35396 ft | 449 kts | 116° |
| 2026-05-05 23:41 | 25.00736 | 57.37183 | 35612 ft | 451 kts | 116° |
| 2026-05-05 23:41 | 24.99509 | 57.40370 | 35806 ft | 454 kts | 116° |
| 2026-05-05 23:42 | 24.98274 | 57.43577 | 36095 ft | 454 kts | 116° |
| 2026-05-05 23:42 | 24.97038 | 57.46785 | 36314 ft | 456 kts | 116° |
| 2026-05-05 23:42 | 24.95795 | 57.50005 | 36518 ft | 458 kts | 115° |
| 2026-05-05 23:42 | 24.94547 | 57.53238 | 36737 ft | 460 kts | 115° |
| 2026-05-05 23:43 | 24.92022 | 57.59771 | 36784 ft | 461 kts | 115° |
| 2026-05-05 23:43 | 24.89521 | 57.66235 | 36787 ft | 458 kts | 116° |
| 2026-05-05 23:44 | 24.87011 | 57.72707 | 36792 ft | 461 kts | 116° |
| 2026-05-05 23:44 | 24.84490 | 57.79197 | 36787 ft | 461 kts | 116° |
| 2026-05-05 23:45 | 24.82512 | 57.85910 | 36784 ft | 463 kts | 103° |
| 2026-05-05 23:45 | 24.81163 | 57.92722 | 36791 ft | 460 kts | 104° |
| 2026-05-05 23:46 | 24.79763 | 57.99599 | 36785 ft | 460 kts | 104° |
| 2026-05-05 23:46 | 24.78370 | 58.06424 | 36788 ft | 461 kts | 104° |
| 2026-05-05 23:47 | 24.76964 | 58.13307 | 36792 ft | 461 kts | 104° |
| 2026-05-05 23:47 | 24.75556 | 58.20185 | 36788 ft | 461 kts | 104° |
| 2026-05-05 23:48 | 24.74144 | 58.27063 | 36791 ft | 461 kts | 104° |
| 2026-05-05 23:48 | 24.72728 | 58.33944 | 36786 ft | 461 kts | 104° |
| 2026-05-05 23:49 | 24.71310 | 58.40817 | 36788 ft | 461 kts | 104° |
| 2026-05-05 23:49 | 24.69888 | 58.47696 | 36784 ft | 461 kts | 104° |
| 2026-05-05 23:50 | 24.68464 | 58.54568 | 36787 ft | 461 kts | 104° |
| 2026-05-05 23:50 | 24.67036 | 58.61443 | 36786 ft | 461 kts | 104° |
| 2026-05-05 23:51 | 24.65605 | 58.68314 | 36786 ft | 461 kts | 104° |
| 2026-05-05 23:51 | 24.64318 | 58.74475 | 36794 ft | 461 kts | 104° |
| 2026-05-05 23:52 | 24.63301 | 58.79339 | 36789 ft | 461 kts | 104° |
| 2026-05-05 23:52 | 24.61841 | 58.86300 | 36790 ft | 475 kts | 104° |
| 2026-05-05 23:53 | 24.60336 | 58.93459 | 36795 ft | 489 kts | 104° |
| 2026-05-05 23:53 | 24.58779 | 59.00853 | 36795 ft | 504 kts | 104° |
| 2026-05-05 23:54 | 24.57171 | 59.08464 | 36790 ft | 519 kts | 104° |
| 2026-05-05 23:54 | 24.55514 | 59.16290 | 36793 ft | 534 kts | 104° |
| 2026-05-05 23:55 | 24.53805 | 59.24344 | 36790 ft | 549 kts | 104° |
| 2026-05-05 23:55 | 24.52043 | 59.32612 | 36791 ft | 556 kts | 104° |
| 2026-05-05 23:56 | 24.50293 | 59.40810 | 36792 ft | 552 kts | 104° |
| 2026-05-05 23:56 | 24.48534 | 59.49015 | 36797 ft | 552 kts | 104° |
| 2026-05-05 23:57 | 24.46775 | 59.57202 | 36790 ft | 552 kts | 104° |
| 2026-05-05 23:57 | 24.45047 | 59.65220 | 36790 ft | 554 kts | 104° |
| 2026-05-05 23:58 | 24.43276 | 59.73422 | 36799 ft | 551 kts | 104° |
| 2026-05-05 23:58 | 24.41501 | 59.81611 | 36798 ft | 551 kts | 104° |
| 2026-05-05 23:59 | 24.39723 | 59.89794 | 36795 ft | 552 kts | 104° |
| 2026-05-05 23:59 | 24.37937 | 59.97994 | 36800 ft | 553 kts | 104° |
| 2026-05-06 00:00 | 24.36436 | 60.04865 | 36801 ft | 553 kts | 104° |
| 2026-05-06 00:00 | 24.34643 | 60.13058 | 36797 ft | 553 kts | 104° |
| 2026-05-06 00:01 | 24.32843 | 60.21262 | 36801 ft | 554 kts | 104° |
| 2026-05-06 00:01 | 24.31037 | 60.29476 | 36805 ft | 554 kts | 104° |
| 2026-05-06 00:02 | 24.29275 | 60.37468 | 36800 ft | 552 kts | 104° |
| 2026-05-06 00:02 | 24.27467 | 60.45643 | 36799 ft | 552 kts | 104° |
| 2026-05-06 00:03 | 24.25652 | 60.53827 | 36800 ft | 553 kts | 104° |
| 2026-05-06 00:03 | 24.23832 | 60.62015 | 36801 ft | 553 kts | 104° |
| 2026-05-06 00:04 | 24.22007 | 60.70203 | 36808 ft | 553 kts | 104° |
| 2026-05-06 00:04 | 24.20176 | 60.78397 | 36813 ft | 555 kts | 104° |
| 2026-05-06 00:05 | 24.17423 | 60.90709 | 36809 ft | 555 kts | 104° |
| 2026-05-06 00:06 | 24.15586 | 60.98899 | 36814 ft | 552 kts | 105° |
| 2026-05-06 00:06 | 24.13750 | 61.07060 | 36803 ft | 553 kts | 105° |
| 2026-05-06 00:07 | 24.11906 | 61.15234 | 36809 ft | 553 kts | 105° |
| 2026-05-06 00:07 | 24.10060 | 61.23398 | 36806 ft | 553 kts | 105° |
| 2026-05-06 00:08 | 24.08229 | 61.31574 | 36812 ft | 553 kts | 102° |
| 2026-05-06 00:08 | 24.07408 | 61.39954 | 36810 ft | 555 kts | 93° |
| 2026-05-06 00:09 | 24.06921 | 61.48391 | 36820 ft | 556 kts | 94° |
| 2026-05-06 00:09 | 24.06417 | 61.56813 | 36819 ft | 555 kts | 94° |
| 2026-05-06 00:10 | 24.05908 | 61.65258 | 36819 ft | 556 kts | 94° |
| 2026-05-06 00:10 | 24.05396 | 61.73686 | 36820 ft | 555 kts | 94° |
| 2026-05-06 00:11 | 24.04883 | 61.82041 | 36816 ft | 553 kts | 94° |
| 2026-05-06 00:11 | 24.04364 | 61.90428 | 36817 ft | 553 kts | 94° |
| 2026-05-06 00:12 | 24.03839 | 61.98832 | 36822 ft | 554 kts | 94° |
| 2026-05-06 00:12 | 24.03309 | 62.07241 | 36820 ft | 554 kts | 94° |
| 2026-05-06 00:13 | 24.02775 | 62.15644 | 36826 ft | 554 kts | 94° |
| 2026-05-06 00:13 | 24.02236 | 62.24045 | 36831 ft | 555 kts | 94° |
| 2026-05-06 00:14 | 24.01691 | 62.32463 | 36831 ft | 555 kts | 94° |
| 2026-05-06 00:14 | 24.01142 | 62.40885 | 36826 ft | 555 kts | 94° |
| 2026-05-06 00:15 | 24.00589 | 62.49299 | 36829 ft | 555 kts | 94° |
| 2026-05-06 00:15 | 24.00029 | 62.57730 | 36827 ft | 557 kts | 94° |
| 2026-05-06 00:16 | 23.99465 | 62.66177 | 36823 ft | 556 kts | 94° |
| 2026-05-06 00:16 | 23.98896 | 62.74609 | 36824 ft | 556 kts | 94° |
| 2026-05-06 00:17 | 23.98323 | 62.83044 | 36828 ft | 557 kts | 94° |
| 2026-05-06 00:17 | 23.97749 | 62.91413 | 36830 ft | 555 kts | 94° |
| 2026-05-06 00:18 | 23.97168 | 62.99821 | 36830 ft | 555 kts | 94° |
| 2026-05-06 00:18 | 23.96582 | 63.08232 | 36838 ft | 555 kts | 94° |
| 2026-05-06 00:19 | 23.95992 | 63.16644 | 36834 ft | 556 kts | 94° |
| 2026-05-06 00:19 | 23.95395 | 63.25077 | 36830 ft | 556 kts | 94° |
| 2026-05-06 00:20 | 23.94794 | 63.33508 | 36831 ft | 556 kts | 94° |
| 2026-05-06 00:20 | 23.94189 | 63.41936 | 36829 ft | 556 kts | 94° |
| 2026-05-06 00:21 | 23.93577 | 63.50382 | 36827 ft | 558 kts | 94° |
| 2026-05-06 00:21 | 23.92960 | 63.58834 | 36830 ft | 558 kts | 94° |
| 2026-05-06 00:22 | 23.92345 | 63.67213 | 36830 ft | 558 kts | 94° |
| 2026-05-06 00:22 | 23.91713 | 63.75734 | 36827 ft | 559 kts | 94° |
| 2026-05-06 00:23 | 23.91082 | 63.84196 | 36834 ft | 559 kts | 94° |
| 2026-05-06 00:23 | 23.90446 | 63.92659 | 36829 ft | 559 kts | 94° |
| 2026-05-06 00:24 | 23.89807 | 64.01101 | 36835 ft | 557 kts | 94° |
| 2026-05-06 00:24 | 23.89163 | 64.09540 | 36838 ft | 558 kts | 94° |
| 2026-05-06 00:25 | 23.88514 | 64.17989 | 36832 ft | 558 kts | 94° |
| 2026-05-06 00:25 | 23.87862 | 64.26413 | 36836 ft | 558 kts | 94° |